Time;durP1;ratioP1;P1;durP2;ratioP2;P2;SDS_P1;SDS_P2;PMS_P1;PMS_P2;Temp;Humidity;BMP_temperature;BMP_pressure;BME280_temperature;BME280_humidity;BME280_pressure;Samples;Min_cycle;Max_cycle;Signal;HPM_P1;HPM_P2
2023/04/13 00:00:47;;;;;;;2.78;1.17;;;6.60;99.90;;;;;;5004352;28;20447;-69
2023/04/13 00:03:15;;;;;;;1.70;0.82;;;6.70;99.90;;;;;;5020139;28;20049;-69
2023/04/13 00:05:42;;;;;;;4.20;1.33;;;6.70;99.90;;;;;;5006659;28;20571;-69
2023/04/13 00:08:08;;;;;;;3.42;1.00;;;6.70;99.90;;;;;;5023056;28;20042;-69
2023/04/13 00:10:35;;;;;;;4.53;1.27;;;6.80;99.90;;;;;;4997123;28;20060;-69
2023/04/13 00:13:04;;;;;;;3.30;0.90;;;6.90;99.90;;;;;;5022236;28;20053;-69
2023/04/13 00:15:31;;;;;;;4.97;1.00;;;7.00;99.90;;;;;;4986802;28;20049;-69
2023/04/13 00:17:57;;;;;;;1.80;1.00;;;6.90;99.90;;;;;;5008453;28;20099;-69
2023/04/13 00:20:23;;;;;;;3.85;1.42;;;7.00;99.90;;;;;;5022157;28;20037;-69
2023/04/13 00:22:49;;;;;;;2.72;1.10;;;7.00;99.90;;;;;;5016818;28;20075;-70
2023/04/13 00:25:15;;;;;;;5.47;1.05;;;7.10;99.90;;;;;;4998429;28;20053;-70
2023/04/13 00:27:42;;;;;;;3.65;1.00;;;7.10;99.90;;;;;;5006427;28;20045;-70
2023/04/13 00:30:12;;;;;;;2.78;1.20;;;7.10;99.90;;;;;;5009497;28;20046;-70
2023/04/13 00:32:41;;;;;;;3.60;1.08;;;7.00;99.90;;;;;;5023363;28;20041;-69
2023/04/13 00:35:08;;;;;;;2.30;0.90;;;7.00;99.90;;;;;;5010768;28;20099;-70
2023/04/13 00:37:33;;;;;;;3.00;1.20;;;6.90;99.90;;;;;;5021525;28;20051;-70
2023/04/13 00:39:59;;;;;;;1.97;1.10;;;6.90;99.90;;;;;;5009079;28;20045;-70
2023/04/13 00:42:25;;;;;;;1.60;1.00;;;6.90;99.90;;;;;;5023886;28;20526;-70
2023/04/13 00:44:52;;;;;;;1.45;0.60;;;6.80;99.90;;;;;;5005293;28;20195;-70
2023/04/13 00:47:27;;;;;;;1.25;0.60;;;6.80;99.90;;;;;;5008268;28;20045;-70
2023/04/13 00:49:54;;;;;;;1.92;0.60;;;6.70;99.90;;;;;;4992149;28;20054;-70
2023/04/13 00:52:21;;;;;;;2.75;1.00;;;6.70;99.90;;;;;;5012078;28;20060;-70
2023/04/13 00:54:50;;;;;;;1.05;0.40;;;6.70;99.90;;;;;;4996611;28;20379;-70
2023/04/13 00:57:18;;;;;;;4.00;0.60;;;6.60;99.90;;;;;;5020199;28;20037;-70
2023/04/13 00:59:44;;;;;;;2.53;0.40;;;6.60;99.90;;;;;;5013667;28;20420;-70
2023/04/13 01:02:09;;;;;;;4.45;0.68;;;6.60;99.90;;;;;;5019902;28;20042;-70
2023/04/13 01:04:36;;;;;;;1.98;0.98;;;6.60;99.90;;;;;;5002136;28;20483;-70
2023/04/13 01:07:24;;;;;;;2.65;0.63;;;6.50;99.90;;;;;;5008516;28;20237;-70
2023/04/13 01:10:00;;;;;;;2.05;0.80;;;6.60;99.90;;;;;;5019379;28;20099;-69
2023/04/13 01:12:33;;;;;;;1.80;0.85;;;6.50;99.90;;;;;;5001499;28;20685;-70
2023/04/13 01:15:10;;;;;;;1.08;0.63;;;6.50;99.90;;;;;;4993388;28;20058;-70
2023/04/13 01:17:40;;;;;;;3.40;0.80;;;6.50;99.90;;;;;;5007772;28;20049;-70
2023/04/13 01:20:09;;;;;;;2.45;0.70;;;6.50;99.90;;;;;;5007193;28;20067;-70
2023/04/13 01:22:38;;;;;;;2.22;0.70;;;6.50;99.90;;;;;;5003302;28;20471;-69
2023/04/13 01:25:29;;;;;;;1.75;0.90;;;6.50;99.90;;;;;;5010906;28;20046;-70
2023/04/13 01:28:01;;;;;;;4.03;0.70;;;6.50;99.90;;;;;;5020004;28;20264;-70
2023/04/13 01:30:30;;;;;;;1.95;1.08;;;6.50;99.90;;;;;;5020326;28;20407;-70
2023/04/13 01:32:57;;;;;;;1.48;0.50;;;6.50;99.90;;;;;;5010315;28;20061;-70
2023/04/13 01:35:24;;;;;;;1.50;0.70;;;6.50;99.90;;;;;;4993718;28;20132;-70
2023/04/13 01:37:51;;;;;;;3.88;0.70;;;6.50;99.90;;;;;;4997156;28;20157;-70
2023/04/13 01:40:18;;;;;;;2.05;0.63;;;6.50;99.90;;;;;;5000651;28;20054;-70
2023/04/13 01:42:44;;;;;;;1.92;0.68;;;6.50;99.90;;;;;;5003320;28;20518;-70
2023/04/13 01:45:18;;;;;;;2.28;0.80;;;6.50;99.90;;;;;;5028316;28;20197;-70
2023/04/13 01:47:57;;;;;;;4.63;0.80;;;6.40;99.90;;;;;;5014980;28;20095;-70
2023/04/13 01:50:33;;;;;;;2.25;0.85;;;6.50;99.90;;;;;;5016117;28;20124;-70
2023/04/13 01:53:07;;;;;;;2.33;0.73;;;6.50;99.90;;;;;;4996355;28;20140;-69
2023/04/13 01:55:37;;;;;;;1.45;0.68;;;6.50;99.90;;;;;;4999820;28;20147;-69
2023/04/13 01:58:05;;;;;;;1.38;0.70;;;6.50;99.90;;;;;;5019413;28;20037;-70
2023/04/13 02:00:34;;;;;;;0.90;0.60;;;6.50;99.90;;;;;;5013487;28;20522;-70
2023/04/13 02:03:04;;;;;;;1.52;0.70;;;6.50;99.90;;;;;;5005188;28;20045;-70
2023/04/13 02:05:30;;;;;;;1.77;0.77;;;6.50;99.90;;;;;;4998655;28;20111;-70
2023/04/13 02:07:56;;;;;;;2.28;0.73;;;6.50;99.90;;;;;;5051390;22;20068;-83
2023/04/13 02:10:27;;;;;;;3.00;0.88;;;6.50;99.90;;;;;;5020055;28;20045;-83
2023/04/13 02:13:12;;;;;;;2.45;0.95;;;6.50;99.90;;;;;;5025370;28;20052;-82
2023/04/13 02:15:43;;;;;;;3.47;0.98;;;6.50;99.90;;;;;;5026100;28;20471;-83
2023/04/13 02:18:12;;;;;;;3.92;0.77;;;6.50;99.90;;;;;;5024515;28;20056;-82
2023/04/13 02:20:45;;;;;;;1.50;0.88;;;6.50;99.90;;;;;;5010308;28;20106;-84
2023/04/13 02:23:19;;;;;;;1.60;0.75;;;6.50;99.90;;;;;;4998890;28;20040;-83
2023/04/13 02:25:56;;;;;;;3.13;0.95;;;6.50;99.90;;;;;;5011576;28;20049;-82
2023/04/13 02:28:28;;;;;;;5.78;0.98;;;6.50;99.90;;;;;;4996347;28;20042;-83
2023/04/13 02:31:02;;;;;;;3.97;0.90;;;6.50;99.90;;;;;;4999402;28;20050;-82
2023/04/13 02:33:45;;;;;;;1.27;0.70;;;6.50;99.90;;;;;;5015468;28;20077;-84
2023/04/13 02:36:11;;;;;;;2.35;0.85;;;6.40;99.90;;;;;;5011633;28;20037;-83
2023/04/13 02:38:44;;;;;;;1.45;0.63;;;6.50;99.90;;;;;;4996482;28;21728;-82
2023/04/13 02:41:41;;;;;;;2.45;0.95;;;6.50;99.90;;;;;;4993156;28;20050;-81
2023/04/13 02:44:15;;;;;;;1.50;0.90;;;6.50;99.90;;;;;;5008738;28;20083;-82
2023/04/13 02:46:44;;;;;;;4.60;0.90;;;6.50;99.90;;;;;;4999043;28;20251;-83
2023/04/13 02:49:13;;;;;;;2.28;0.80;;;6.50;99.90;;;;;;5031984;28;20266;-81
2023/04/13 02:51:44;;;;;;;2.03;0.95;;;6.50;99.90;;;;;;5010830;28;20116;-84
2023/04/13 02:54:10;;;;;;;2.28;0.73;;;6.50;99.90;;;;;;5035069;28;20689;-81
2023/04/13 02:56:43;;;;;;;2.20;0.80;;;6.50;99.90;;;;;;5011792;28;20056;-83
2023/04/13 02:59:11;;;;;;;1.85;0.85;;;6.60;99.90;;;;;;5014802;28;20045;-81
2023/04/13 03:01:44;;;;;;;1.88;0.57;;;6.50;99.90;;;;;;5014582;28;20439;-83
2023/04/13 03:04:10;;;;;;;1.58;0.70;;;6.60;99.90;;;;;;5020456;28;20053;-81
2023/04/13 03:06:36;;;;;;;1.15;0.50;;;6.60;99.90;;;;;;4993392;28;20427;-83
2023/04/13 03:09:07;;;;;;;1.53;0.63;;;6.60;99.90;;;;;;5018675;28;20040;-83
2023/04/13 03:11:36;;;;;;;3.17;0.60;;;6.60;99.90;;;;;;4989707;28;20045;-83
2023/04/13 03:14:14;;;;;;;;;;;;;;;;;;;;;
2023/04/13 03:17:11;;;;;;;2.07;0.80;;;6.60;99.90;;;;;;5013939;28;20347;-83
2023/04/13 03:19:49;;;;;;;1.70;1.00;;;6.60;99.90;;;;;;4992328;28;20041;-83
2023/04/13 03:22:38;;;;;;;1.42;0.60;;;6.60;99.90;;;;;;4992766;28;20421;-84
2023/04/13 03:25:10;;;;;;;1.25;0.68;;;6.60;99.90;;;;;;5013619;28;20048;-83
2023/04/13 03:27:56;;;;;;;2.00;0.73;;;6.60;99.90;;;;;;5017695;28;20048;-82
2023/04/13 03:30:25;;;;;;;1.67;0.68;;;6.60;99.90;;;;;;5011874;28;20049;-85
2023/04/13 03:33:21;;;;;;;1.73;0.90;;;6.60;99.90;;;;;;5026800;28;20048;-85
2023/04/13 03:36:13;;;;;;;1.42;0.82;;;6.60;99.90;;;;;;4999810;28;20054;-85
2023/04/13 03:39:13;;;;;;;1.73;0.80;;;6.60;99.90;;;;;;5028809;28;20053;-85
2023/04/13 03:41:49;;;;;;;2.58;0.80;;;6.60;99.90;;;;;;5011189;28;20076;-85
2023/04/13 03:44:23;;;;;;;1.25;0.70;;;6.60;99.90;;;;;;4986959;28;20187;-84
2023/04/13 03:47:10;;;;;;;;;;;;;;;;;;;;;
2023/04/13 03:49:36;;;;;;;1.80;0.90;;;6.60;99.90;;;;;;5008128;28;20472;-85
2023/04/13 03:52:01;;;;;;;1.53;0.80;;;6.70;99.90;;;;;;5023062;28;20135;-85
2023/04/13 03:54:33;;;;;;;1.37;0.87;;;6.60;99.90;;;;;;5022688;28;20065;-85
2023/04/13 03:57:00;;;;;;;1.38;0.90;;;6.60;99.90;;;;;;4990200;28;20088;-85
2023/04/13 03:59:26;;;;;;;1.42;0.68;;;6.60;99.90;;;;;;5009186;28;20389;-85
2023/04/13 04:01:55;;;;;;;2.63;0.80;;;6.60;99.90;;;;;;4993549;28;20048;-85
2023/04/13 04:04:44;;;;;;;2.80;0.70;;;6.60;99.90;;;;;;4989212;28;20079;-85
2023/04/13 04:07:15;;;;;;;1.35;0.63;;;6.60;99.90;;;;;;4994923;28;20045;-83
2023/04/13 04:09:47;;;;;;;1.77;0.70;;;6.60;99.90;;;;;;4994967;28;20116;-85
2023/04/13 04:12:27;;;;;;;1.50;0.68;;;6.50;99.90;;;;;;4990704;28;20579;-84
2023/04/13 04:15:00;;;;;;;1.50;0.80;;;6.40;99.90;;;;;;4993316;28;20041;-85
2023/04/13 04:17:36;;;;;;;1.98;0.80;;;6.40;99.90;;;;;;5027163;28;20045;-85
2023/04/13 04:20:13;;;;;;;2.25;1.08;;;6.40;99.90;;;;;;4994626;28;20233;-85
2023/04/13 04:22:47;;;;;;;1.75;0.70;;;6.30;99.90;;;;;;4991596;28;20481;-84
2023/04/13 04:25:20;;;;;;;1.33;0.80;;;6.30;99.90;;;;;;4991156;28;20041;-85
2023/04/13 04:27:48;;;;;;;1.38;0.70;;;6.30;99.90;;;;;;5028781;28;20490;-85
2023/04/13 04:30:14;;;;;;;0.98;0.60;;;6.20;99.90;;;;;;5000862;28;20033;-82
2023/04/13 04:32:42;;;;;;;1.27;0.73;;;6.20;99.90;;;;;;4992157;28;20546;-85
2023/04/13 04:35:18;;;;;;;2.10;1.00;;;6.20;99.90;;;;;;5030391;28;20064;-85
2023/04/13 04:37:56;;;;;;;2.85;0.88;;;6.20;99.90;;;;;;5012048;28;20128;-84
2023/04/13 04:40:34;;;;;;;2.13;0.70;;;6.20;99.90;;;;;;5001809;28;20049;-85
2023/04/13 04:43:12;;;;;;;1.10;0.60;;;6.10;99.90;;;;;;5007787;28;20052;-84
2023/04/13 04:45:50;;;;;;;1.92;1.10;;;6.10;99.90;;;;;;5000282;28;20048;-85
2023/04/13 04:48:36;;;;;;;;;;;6.10;99.90;;;;;;5030090;28;20120;-85
2023/04/13 04:51:16;;;;;;;3.85;0.95;;;6.00;99.90;;;;;;5005111;28;19928;-84
2023/04/13 04:53:42;;;;;;;2.10;1.20;;;5.90;99.90;;;;;;4998399;28;20191;-85
2023/04/13 04:56:20;;;;;;;3.22;1.15;;;6.00;99.90;;;;;;5000739;28;20046;-85
2023/04/13 04:58:57;;;;;;;4.90;1.25;;;5.90;99.90;;;;;;4990287;28;20550;-85
2023/04/13 05:01:55;;;;;;;2.05;1.23;;;5.90;99.90;;;;;;5010147;28;20123;-84
2023/04/13 05:04:21;;;;;;;1.67;1.00;;;5.90;99.90;;;;;;4998163;28;20054;-84
2023/04/13 05:06:47;;;;;;;3.27;1.40;;;5.90;99.90;;;;;;5034689;28;20392;-85
2023/04/13 05:12:44;;;;;;;;;;;;;;;;;;;;;
2023/04/13 05:15:19;;;;;;;2.88;1.27;;;5.90;99.90;;;;;;5012606;28;20075;-85
2023/04/13 05:18:14;;;;;;;5.65;1.85;;;5.90;99.90;;;;;;5008352;28;20092;-84
2023/04/13 05:20:42;;;;;;;3.20;1.35;;;5.90;99.90;;;;;;5000526;28;20048;-85
2023/04/13 05:23:13;;;;;;;5.88;1.50;;;5.90;99.90;;;;;;5012123;28;20041;-85
2023/04/13 05:25:47;;;;;;;2.85;1.30;;;5.90;99.90;;;;;;5018021;28;20703;-84
2023/04/13 05:28:13;;;;;;;6.60;1.85;;;6.00;99.90;;;;;;5015658;28;20038;-84
2023/04/13 05:30:49;;;;;;;4.75;2.28;;;6.10;99.90;;;;;;5017399;28;20532;-85
2023/04/13 05:33:19;;;;;;;4.57;1.70;;;6.10;99.90;;;;;;4990954;28;20041;-84
2023/04/13 05:35:45;;;;;;;6.43;1.77;;;6.20;99.90;;;;;;5012720;28;20061;-84
2023/04/13 05:38:10;;;;;;;4.10;1.60;;;6.30;99.90;;;;;;5030913;28;20045;-85
2023/04/13 05:40:44;;;;;;;3.73;1.70;;;6.30;99.90;;;;;;5000520;28;20099;-84
2023/04/13 05:43:18;;;;;;;3.33;1.77;;;6.30;99.90;;;;;;5034185;28;20408;-85
2023/04/13 05:46:01;;;;;;;5.55;1.70;;;6.30;99.90;;;;;;5015405;28;20055;-85
2023/04/13 05:48:29;;;;;;;3.65;1.60;;;6.40;99.90;;;;;;5012537;28;20046;-85
2023/04/13 05:51:11;;;;;;;;;;;;;;;;;;;;;
2023/04/13 05:54:32;;;;;;;3.88;1.77;;;6.60;99.90;;;;;;5012692;28;20067;-86
2023/04/13 05:57:06;;;;;;;3.40;1.20;;;6.50;99.90;;;;;;4894630;29;20189;-85
2023/04/13 06:00:19;;;;;;;3.25;1.65;;;6.50;99.90;;;;;;5021871;28;20041;-85
2023/04/13 06:04:08;;;;;;;5.68;1.20;;;6.50;99.90;;;;;;5010280;28;20043;-86
2023/04/13 06:09:43;;;;;;;4.43;1.00;;;6.60;99.90;;;;;;5062238;22;20037;-69
2023/04/13 06:12:09;;;;;;;2.70;0.87;;;6.60;99.90;;;;;;5042195;28;20280;-68
2023/04/13 06:14:35;;;;;;;2.07;0.87;;;6.70;99.90;;;;;;5048116;28;20138;-72
2023/04/13 06:17:00;;;;;;;5.30;1.30;;;6.70;99.90;;;;;;5047848;28;20044;-72
2023/04/13 06:19:26;;;;;;;5.77;1.80;;;6.80;99.90;;;;;;5044030;28;20494;-71
2023/04/13 06:21:51;;;;;;;2.53;1.10;;;6.80;99.90;;;;;;5049954;28;20036;-71
2023/04/13 06:24:17;;;;;;;3.10;1.03;;;6.90;99.90;;;;;;5046879;28;20036;-72
2023/04/13 06:26:43;;;;;;;3.80;0.93;;;6.90;99.90;;;;;;5035399;28;20058;-74
2023/04/13 06:29:11;;;;;;;2.90;1.30;;;7.00;99.90;;;;;;5035385;28;20032;-70
2023/04/13 06:31:37;;;;;;;2.85;0.98;;;7.00;99.90;;;;;;5034350;28;20492;-72
2023/04/13 06:34:03;;;;;;;3.63;1.30;;;7.00;99.90;;;;;;5023680;28;20085;-69
2023/04/13 06:36:28;;;;;;;3.17;0.77;;;7.10;99.90;;;;;;5050734;28;20032;-70
2023/04/13 06:38:54;;;;;;;6.47;1.70;;;7.10;99.90;;;;;;5056859;28;20051;-69
2023/04/13 06:41:19;;;;;;;3.27;1.23;;;7.10;99.90;;;;;;5039208;28;20472;-73
2023/04/13 06:43:45;;;;;;;2.87;1.17;;;7.10;99.90;;;;;;5035300;28;20433;-69
2023/04/13 06:46:13;;;;;;;4.28;1.30;;;7.20;99.90;;;;;;5043145;28;20474;-68
2023/04/13 06:48:38;;;;;;;4.03;1.70;;;7.30;99.90;;;;;;5035981;28;20119;-71
2023/04/13 06:51:04;;;;;;;4.23;1.80;;;7.40;99.90;;;;;;5036418;28;20517;-75
2023/04/13 06:53:30;;;;;;;2.70;1.38;;;7.50;99.90;;;;;;5018435;28;20082;-74
2023/04/13 06:55:56;;;;;;;6.80;1.85;;;7.50;99.90;;;;;;5027286;28;20040;-76
2023/04/13 06:58:33;;;;;;;4.47;1.70;;;7.60;99.90;;;;;;5018784;28;20044;-68
2023/04/13 07:00:59;;;;;;;7.78;2.28;;;7.70;99.90;;;;;;5048564;28;20047;-67
2023/04/13 07:03:25;;;;;;;4.97;1.33;;;7.70;99.90;;;;;;5032955;28;20432;-69
2023/04/13 07:05:50;;;;;;;2.65;1.23;;;7.70;99.90;;;;;;5053864;28;20040;-75
2023/04/13 07:08:18;;;;;;;4.13;1.17;;;7.80;99.90;;;;;;5038198;28;20068;-76
2023/04/13 07:10:44;;;;;;;7.93;1.70;;;7.80;99.90;;;;;;5029272;28;20032;-70
2023/04/13 07:13:10;;;;;;;4.80;1.23;;;7.90;99.90;;;;;;5056911;28;20186;-68
2023/04/13 07:15:36;;;;;;;3.17;1.13;;;7.90;99.90;;;;;;5036654;28;20132;-68
2023/04/13 07:18:03;;;;;;;5.00;1.30;;;7.90;99.90;;;;;;5039525;28;20106;-68
2023/04/13 07:20:28;;;;;;;3.13;1.30;;;8.00;99.90;;;;;;5052682;28;20078;-69
2023/04/13 07:22:54;;;;;;;5.57;1.43;;;8.10;99.90;;;;;;5040851;28;20442;-69
2023/04/13 07:25:20;;;;;;;3.27;0.90;;;8.20;99.90;;;;;;5032168;28;21083;-68
2023/04/13 07:27:47;;;;;;;3.67;1.10;;;8.30;99.90;;;;;;5036141;28;20142;-68
2023/04/13 07:30:14;;;;;;;7.38;1.00;;;8.40;99.90;;;;;;5052211;28;20040;-68
2023/04/13 07:32:39;;;;;;;7.22;1.27;;;8.50;99.90;;;;;;5022924;28;20452;-68
2023/04/13 07:35:05;;;;;;;5.27;1.10;;;8.50;99.90;;;;;;5045897;28;20086;-68
2023/04/13 07:37:31;;;;;;;6.45;1.05;;;8.60;99.90;;;;;;5038785;28;20049;-68
2023/04/13 07:39:57;;;;;;;1.77;0.77;;;8.60;99.90;;;;;;5033144;28;20048;-68
2023/04/13 07:42:23;;;;;;;3.40;0.80;;;8.60;99.90;;;;;;5043725;28;20135;-68
2023/04/13 07:44:51;;;;;;;3.30;1.02;;;8.60;99.90;;;;;;5038812;28;20126;-68
2023/04/13 07:47:17;;;;;;;6.38;1.10;;;8.60;99.90;;;;;;5038642;28;20091;-68
2023/04/13 07:49:42;;;;;;;2.97;0.77;;;8.50;99.90;;;;;;5057417;28;20072;-68
2023/04/13 07:52:08;;;;;;;1.73;0.60;;;8.50;99.90;;;;;;5049599;28;20425;-68
2023/04/13 07:54:35;;;;;;;2.57;0.87;;;8.50;99.90;;;;;;5035794;28;20425;-68
2023/04/13 07:57:01;;;;;;;1.45;0.60;;;8.60;99.90;;;;;;5023256;28;20045;-74
2023/04/13 07:59:28;;;;;;;;;;;8.70;99.90;;;;;;5042538;28;20044;-73
2023/04/13 08:01:53;;;;;;;3.15;1.27;;;8.80;99.90;;;;;;5029038;28;19981;-70
2023/04/13 08:04:20;;;;;;;3.53;0.80;;;8.80;99.90;;;;;;5044219;28;20033;-68
2023/04/13 08:06:47;;;;;;;2.45;0.60;;;8.80;99.90;;;;;;5050439;28;20083;-68
2023/04/13 08:09:13;;;;;;;;;;;8.90;99.90;;;;;;5073330;22;20041;-68
2023/04/13 08:11:39;;;;;;;2.33;0.60;;;9.10;99.90;;;;;;4996404;28;19987;-68
2023/04/13 08:14:08;;;;;;;5.63;1.20;;;9.00;99.90;;;;;;4978719;28;20066;-69
2023/04/13 08:16:34;;;;;;;7.68;1.10;;;9.00;99.90;;;;;;4966129;28;20049;-68
2023/04/13 08:19:00;;;;;;;3.47;0.50;;;9.10;99.90;;;;;;4988666;28;20107;-69
2023/04/13 08:21:27;;;;;;;3.38;0.90;;;9.10;99.90;;;;;;4980139;28;20116;-68
2023/04/13 08:23:56;;;;;;;4.38;0.50;;;9.00;99.90;;;;;;4981898;28;20064;-69
2023/04/13 08:26:21;;;;;;;3.67;0.95;;;8.90;99.90;;;;;;5003503;28;20034;-69
2023/04/13 08:28:48;;;;;;;2.20;0.80;;;8.90;99.90;;;;;;4979150;28;20096;-69
2023/04/13 08:31:14;;;;;;;3.00;0.77;;;8.80;99.90;;;;;;4992508;28;20526;-69
2023/04/13 08:33:40;;;;;;;2.15;0.80;;;8.70;99.90;;;;;;4988797;28;20050;-69
2023/04/13 08:36:06;;;;;;;2.63;0.80;;;8.60;99.90;;;;;;5004165;28;20096;-69
2023/04/13 08:38:32;;;;;;;2.42;0.60;;;8.70;99.90;;;;;;5006964;28;20045;-69
2023/04/13 08:41:00;;;;;;;2.85;0.90;;;8.70;99.90;;;;;;5013368;28;20033;-69
2023/04/13 08:43:27;;;;;;;3.53;0.98;;;8.80;99.90;;;;;;4988438;28;20544;-69
2023/04/13 08:45:52;;;;;;;4.97;0.95;;;8.90;99.90;;;;;;5005957;28;20049;-69
2023/04/13 08:48:21;;;;;;;2.33;0.53;;;8.90;99.90;;;;;;5002093;28;20513;-68
2023/04/13 08:50:51;;;;;;;2.95;0.75;;;8.90;99.90;;;;;;4986477;28;20065;-69
2023/04/13 08:53:19;;;;;;;1.05;0.35;;;8.90;99.90;;;;;;4981510;28;20110;-69
2023/04/13 08:55:46;;;;;;;2.83;0.52;;;8.80;99.90;;;;;;4997074;28;20059;-69
2023/04/13 08:58:13;;;;;;;3.13;0.60;;;8.80;99.90;;;;;;5004540;28;20437;-69
2023/04/13 09:00:40;;;;;;;3.33;0.82;;;8.80;99.90;;;;;;4991713;28;20390;-69
2023/04/13 09:03:07;;;;;;;1.73;0.50;;;8.70;99.90;;;;;;5015171;28;20133;-69
2023/04/13 09:05:37;;;;;;;;;;;8.60;99.90;;;;;;4992537;28;20137;-69
2023/04/13 09:08:06;;;;;;;5.03;0.70;;;8.60;99.90;;;;;;5004665;28;19917;-69
2023/04/13 09:10:32;;;;;;;1.65;0.50;;;8.50;99.90;;;;;;4991011;28;20045;-69
2023/04/13 09:12:59;;;;;;;1.40;0.45;;;8.50;99.90;;;;;;4982426;28;20069;-69
2023/04/13 09:15:25;;;;;;;3.85;0.40;;;8.40;99.90;;;;;;5004497;28;20142;-69
2023/04/13 09:17:52;;;;;;;0.97;0.43;;;8.30;99.90;;;;;;5000906;28;20056;-69
2023/04/13 09:20:22;;;;;;;1.33;0.30;;;8.20;99.90;;;;;;4986069;28;20550;-69
2023/04/13 09:22:51;;;;;;;0.65;0.20;;;8.20;99.90;;;;;;5003481;28;20141;-69
2023/04/13 09:25:20;;;;;;;0.38;0.20;;;8.20;99.90;;;;;;5002101;28;20041;-70
2023/04/13 09:27:46;;;;;;;0.55;0.15;;;8.10;99.90;;;;;;5002509;28;20100;-69
2023/04/13 09:30:12;;;;;;;0.67;0.10;;;8.00;99.90;;;;;;4979428;28;20042;-71
2023/04/13 09:32:37;;;;;;;0.15;0.10;;;7.90;99.90;;;;;;4986233;28;20038;-70
2023/04/13 09:35:07;;;;;;;0.63;0.30;;;7.90;99.90;;;;;;5011206;28;20049;-70
2023/04/13 09:37:34;;;;;;;0.90;0.10;;;7.80;99.90;;;;;;4985323;28;20041;-70
2023/04/13 09:40:19;;;;;;;0.35;0.13;;;7.70;99.90;;;;;;5012285;28;20370;-71
2023/04/13 09:42:58;;;;;;;0.52;0.20;;;7.70;99.90;;;;;;4986184;28;20057;-70
2023/04/13 09:45:36;;;;;;;0.82;0.20;;;7.70;99.90;;;;;;4999041;28;20114;-70
2023/04/13 09:48:03;;;;;;;1.55;0.20;;;7.70;99.90;;;;;;4966357;28;20048;-71
2023/04/13 09:50:31;;;;;;;0.38;0.15;;;7.80;99.90;;;;;;4990385;28;20046;-70
2023/04/13 09:53:01;;;;;;;0.00;0.00;;;7.80;99.90;;;;;;4973631;28;20044;-71
2023/04/13 09:55:27;;;;;;;2.05;0.43;;;7.90;99.90;;;;;;4991134;28;20542;-70
2023/04/13 09:57:53;;;;;;;1.17;0.15;;;8.00;99.90;;;;;;4985561;28;20041;-70
2023/04/13 10:00:20;;;;;;;0.45;0.20;;;8.20;99.90;;;;;;4983286;28;20042;-70
2023/04/13 10:02:50;;;;;;;1.45;0.52;;;8.50;99.90;;;;;;4987443;28;20049;-70
2023/04/13 10:05:18;;;;;;;1.45;0.20;;;8.60;99.90;;;;;;5010514;28;20056;-70
2023/04/13 10:07:45;;;;;;;3.55;0.38;;;8.70;99.90;;;;;;4982874;28;20121;-70
2023/04/13 10:10:11;;;;;;;1.17;0.38;;;8.90;99.90;;;;;;4985241;28;20052;-70
2023/04/13 10:12:41;;;;;;;2.83;0.93;;;9.00;99.90;;;;;;5011602;28;20423;-70
2023/04/13 10:15:16;;;;;;;4.55;0.80;;;9.20;99.90;;;;;;5012041;28;20294;-70
2023/04/13 10:18:00;;;;;;;2.33;0.77;;;9.40;99.90;;;;;;5002956;28;20535;-70
2023/04/13 10:20:27;;;;;;;6.53;0.73;;;9.70;99.90;;;;;;5002858;28;20436;-69
2023/04/13 10:22:53;;;;;;;5.70;0.85;;;9.90;99.90;;;;;;5002499;28;20127;-69
2023/04/13 10:25:19;;;;;;;1.88;0.68;;;10.00;99.90;;;;;;5004885;28;20046;-70
2023/04/13 10:27:58;;;;;;;3.38;0.70;;;9.90;99.90;;;;;;4969237;28;20128;-69
2023/04/13 10:30:25;;;;;;;1.95;0.50;;;9.90;99.90;;;;;;4986135;28;20113;-69
2023/04/13 10:33:05;;;;;;;4.30;0.63;;;10.00;99.90;;;;;;5002189;28;20506;-70
2023/04/13 10:35:33;;;;;;;6.28;1.10;;;10.00;99.90;;;;;;4992873;28;20053;-70
2023/04/13 10:37:59;;;;;;;2.33;0.75;;;9.90;99.90;;;;;;4980855;28;20442;-69
2023/04/13 10:40:24;;;;;;;2.37;0.70;;;9.70;99.90;;;;;;5004889;28;20058;-70
2023/04/13 10:42:50;;;;;;;1.67;0.40;;;9.50;99.90;;;;;;4993925;28;20117;-69
2023/04/13 10:45:20;;;;;;;1.25;0.35;;;9.30;99.90;;;;;;4989029;28;20236;-70
2023/04/13 10:47:47;;;;;;;2.08;0.52;;;9.20;99.90;;;;;;4999979;28;20457;-70
2023/04/13 10:50:17;;;;;;;3.20;0.55;;;9.00;99.90;;;;;;4978274;28;20041;-70
2023/04/13 10:52:56;;;;;;;2.40;0.77;;;8.80;99.90;;;;;;4989026;28;20046;-71
2023/04/13 10:55:24;;;;;;;4.40;0.68;;;8.60;99.90;;;;;;5001310;28;20068;-70
2023/04/13 10:57:50;;;;;;;6.90;0.80;;;8.60;99.90;;;;;;4992301;28;20096;-70
2023/04/13 11:00:20;;;;;;;4.17;0.97;;;8.70;99.90;;;;;;4995325;28;20037;-71
2023/04/13 11:02:48;;;;;;;7.57;1.10;;;8.70;99.90;;;;;;4990322;28;20422;-71
2023/04/13 11:05:19;;;;;;;5.20;0.88;;;8.80;99.90;;;;;;4995625;28;20045;-70
2023/04/13 11:07:47;;;;;;;2.28;0.90;;;9.00;99.90;;;;;;5002791;28;20049;-70
2023/04/13 11:10:14;;;;;;;5.07;1.25;;;9.10;99.90;;;;;;5009138;28;20444;-70
2023/04/13 11:12:51;;;;;;;6.95;1.88;;;9.20;99.90;;;;;;4986317;28;20111;-70
2023/04/13 11:15:27;;;;;;;5.50;1.17;;;9.30;99.90;;;;;;4997101;28;20045;-70
2023/04/13 11:17:58;;;;;;;10.13;1.43;;;9.40;99.90;;;;;;5004557;28;20049;-70
2023/04/13 11:20:30;;;;;;;9.88;1.63;;;9.50;99.90;;;;;;4985693;28;20428;-70
2023/04/13 11:22:56;;;;;;;4.90;1.30;;;9.70;99.90;;;;;;4982630;28;20384;-69
2023/04/13 11:25:22;;;;;;;4.20;1.63;;;9.80;99.90;;;;;;4981492;28;20038;-70
2023/04/13 11:27:58;;;;;;;7.68;1.30;;;9.90;99.90;;;;;;4984744;28;20105;-70
2023/04/13 11:30:24;;;;;;;18.17;2.67;;;10.00;99.90;;;;;;5011024;28;20107;-70
2023/04/13 11:32:52;;;;;;;;;;;10.10;99.90;;;;;;5002472;28;20046;-70
2023/04/13 11:35:19;;;;;;;12.85;1.70;;;10.10;99.90;;;;;;5001499;28;20359;-70
2023/04/13 11:37:48;;;;;;;8.52;1.40;;;10.10;99.90;;;;;;5005233;28;20133;-70
2023/04/13 11:40:20;;;;;;;8.38;1.27;;;10.10;99.90;;;;;;4989589;28;20104;-70
2023/04/13 11:42:54;;;;;;;8.68;1.77;;;10.20;99.90;;;;;;4998309;28;20518;-70
2023/04/13 11:45:24;;;;;;;7.32;1.63;;;10.20;99.90;;;;;;5001616;28;20046;-70
2023/04/13 11:47:50;;;;;;;12.55;1.55;;;10.30;99.90;;;;;;4984669;28;20065;-70
2023/04/13 11:50:17;;;;;;;11.43;2.10;;;10.30;99.90;;;;;;5004765;28;20089;-70
2023/04/13 11:52:45;;;;;;;5.40;1.38;;;10.40;99.90;;;;;;4984116;28;20049;-70
2023/04/13 11:55:12;;;;;;;11.30;2.45;;;10.30;99.90;;;;;;5006553;28;20077;-70
2023/04/13 11:57:40;;;;;;;5.75;1.52;;;10.20;99.90;;;;;;4993110;28;20098;-70
2023/04/13 12:00:20;;;;;;;8.18;1.27;;;10.20;99.90;;;;;;4991646;28;20291;-70
2023/04/13 12:02:47;;;;;;;9.75;2.33;;;10.20;99.90;;;;;;4989297;28;20309;-70
2023/04/13 12:05:24;;;;;;;5.22;1.58;;;10.30;99.90;;;;;;5008747;28;20040;-70
2023/04/13 12:07:54;;;;;;;7.97;1.58;;;10.30;99.90;;;;;;4980954;28;20050;-70
2023/04/13 12:10:33;;;;;;;9.50;1.17;;;10.40;99.90;;;;;;4983831;28;20042;-70
2023/04/13 12:13:09;;;;;;;11.85;2.15;;;10.40;99.90;;;;;;4989682;28;20132;-70
2023/04/13 12:15:39;;;;;;;4.57;0.93;;;10.40;99.90;;;;;;5010116;28;20077;-70
2023/04/13 12:18:05;;;;;;;14.18;2.58;;;10.30;99.90;;;;;;5013404;28;20068;-70
2023/04/13 12:20:39;;;;;;;7.30;1.30;;;10.30;99.90;;;;;;5008078;28;20061;-69
2023/04/13 12:23:22;;;;;;;9.93;1.42;;;10.20;99.90;;;;;;4986287;28;20132;-70
2023/04/13 12:26:04;;;;;;;4.95;1.52;;;10.20;99.90;;;;;;5005892;28;20046;-70
2023/04/13 12:28:31;;;;;;;6.72;1.95;;;10.10;99.90;;;;;;4987168;28;20483;-70
2023/04/13 12:31:04;;;;;;;7.05;1.40;;;10.00;99.90;;;;;;5010747;28;20496;-71
2023/04/13 12:33:30;;;;;;;5.60;1.35;;;9.90;99.90;;;;;;5004734;28;20149;-70
2023/04/13 12:35:55;;;;;;;7.32;1.38;;;10.00;99.90;;;;;;4985839;28;20133;-70
2023/04/13 12:38:23;;;;;;;6.90;1.60;;;10.00;99.90;;;;;;5001710;28;20305;-70
2023/04/13 12:40:54;;;;;;;9.07;2.17;;;9.90;99.90;;;;;;5007566;28;20046;-70
2023/04/13 12:43:19;;;;;;;6.75;1.17;;;9.90;99.90;;;;;;4978027;28;20091;-70
2023/04/13 12:45:45;;;;;;;8.33;1.57;;;10.00;99.90;;;;;;5004611;28;20042;-70
2023/04/13 12:48:11;;;;;;;7.50;1.80;;;10.00;99.90;;;;;;4987475;28;20124;-70
2023/04/13 12:50:37;;;;;;;7.30;1.23;;;10.10;99.90;;;;;;5008691;28;20037;-70
2023/04/13 12:53:03;;;;;;;3.90;1.30;;;10.20;99.90;;;;;;5008911;28;20034;-70
2023/04/13 12:55:29;;;;;;;10.60;1.03;;;10.30;99.90;;;;;;4992809;28;20053;-70
2023/04/13 12:57:55;;;;;;;6.90;1.52;;;10.30;99.90;;;;;;4991172;28;20754;-70
2023/04/13 13:00:21;;;;;;;8.67;1.87;;;10.30;99.90;;;;;;5007578;28;20096;-70
2023/04/13 13:02:47;;;;;;;7.57;1.35;;;10.30;99.90;;;;;;5006464;28;20068;-70
2023/04/13 13:05:13;;;;;;;11.65;1.70;;;10.40;99.90;;;;;;5008414;28;20107;-70
2023/04/13 13:07:39;;;;;;;6.30;1.20;;;10.40;99.90;;;;;;5001566;28;20714;-70
2023/04/13 13:10:05;;;;;;;7.33;1.60;;;10.50;99.90;;;;;;5001512;28;20341;-70
2023/04/13 13:12:30;;;;;;;6.10;1.25;;;10.40;99.90;;;;;;4996498;28;20599;-70
2023/04/13 13:14:59;;;;;;;7.63;1.23;;;10.40;99.90;;;;;;5011724;28;20057;-70
2023/04/13 13:17:24;;;;;;;7.97;1.08;;;10.30;99.90;;;;;;4979656;28;20116;-70
2023/04/13 13:19:50;;;;;;;3.43;1.07;;;10.30;99.90;;;;;;4986225;28;20121;-69
2023/04/13 13:22:16;;;;;;;12.13;2.45;;;10.20;99.90;;;;;;4997514;28;20320;-70
2023/04/13 13:24:41;;;;;;;6.53;1.23;;;10.20;99.90;;;;;;5002595;28;20257;-69